Voltar à página inicial

400m

POS PILOTO VIATURA ANO TEMPO
1 4 Adalberto Melim Alfa Romeo 4C 2016 00:12,469
2 9 Lino Manuel Subaru Impresa 2003 00:12,557
3 18 Bruno Martins BMW E30 M3 1988 00:13,712
4 6 Gustavo Gama Honda S2000 2001 00:13,868
5 17 Mário Meiavia Subaru Impresa 1999 00:14,159
6 16 Tiago Mateus Toyota AE86 1984 00:14,391
7 2 Pedro Augusto Toyota MR2 2.0 GTI 16 V 1991 00:15,220
8 1 Nuno Ferreira Fiat 124 ST 1974 00:15,947
9 21 Pedro Marques BMW E30 1983 00:16,196
10 15 Tiago Prata Mazda MX-5 2000 00:16,434
11 8 Rui Nobre Mazda MX-5 1999 00:16,438
12 23 Nério Jesus Toyota GT86 2012 00:16,502
13 11 Jorge Baptista Datsun 1200 1973 00:16,623
14 7 João Sequeira Fiat Seiscento 1998 00:17,004
15 5 Luis Brito Chevrolet LeBaron 1989 00:17,100
16 25 João Ferreira Ford Escort 1987 00:18,920
17 22 Rui da Silva Toyota Corola 1993 00:19,063
18 19 Rui Cordeiro Volkswagen Polo 1984 00:20,602
19 12 Vitor Santos Ford Escort 1971 00:20,851
20 20 Bernardo Bernardo Toyota Starlet 1984 00:21,027
21 14 José Marques Volvo 240 1986 00:22,159
22 10 Iolanda Morgado Mazda MX-5 2000 00:22,197
23 3 Paulo Gomes Toyota Starlet 1983 00:22,381
24 24 Márcio Oliveira Citroen Diane 1977 00:30,910